Airfield :
LOGIN :

Register | Disclaimer

   EN    FR    IT 

 










Legend :    VFR   Marginal VFR   IFR   Intensive IFR   Very Intensive IFR
Visi :
Ceiling :
>= 8 km
>= 3000ft
5 to 8 km
1000 to 3000 ft
1500m to 5 km
500 to 1000 ft
800 to 1500m
200 to 500 ft
< 800m
< 200 ft
Symbols :   Thunderstorms  Fog  Heavy snow  Heavy precipitations  Wind > 20 kt
SIGMETs :     Misc.  Thunderstorms  Icing  Turbulence  Mountain Waves  Volcanic Ashes






- Airport Elevation : 870 ft
- IATA code : ETZ


LFJL - Metz Nancy Lorraine

CURRENT METAR :
  • 071030Z AUTO 30017KT 9999 SCT039 BKN046 BKN054 09/01 Q1017 TEMPO 29013G23KT

EXPIRED METARs :
  • 071000Z AUTO 29018KT 9999 SCT045 BKN054 BKN066 10/00 Q1016 TEMPO 29013G23KT
  • 070930Z AUTO 28018KT 9999 BKN041 BKN048 BKN058 10/M00 Q1016 TEMPO 29013G23KT
  • 070900Z AUTO 27016KT 240V300 9999 FEW032 SCT038 BKN044 09/01 Q1015 TEMPO 29013G23KT
  • 070830Z AUTO 27011KT 9999 FEW023 09/02 Q1015 NOSIG
  • 070800Z AUTO 28013KT 260V320 CAVOK 08/02 Q1014 NOSIG

TAF TAF LFJL
Valid from the 07 at 06:00 until the 08 at 06:00 UTC


070500Z 0706/0806 28008KT 9999 SCT015
BECMG 0707/0709 SCT025
PROB40
TEMPO 0706/0708 BKN005
TEMPO 0709/0715 29013G23KT
BECMG 0717/0719 VRB03KT



MET'MAP, your aeronautical weather chart ! - Copyright ORBIFLY December 2007 - Disclaimer

ORBIFLY MET'MAP TEAM :

Programming & Development : Alexandra Zaïnal
Concept & original design : Baudouin d'Aumeries
Assistance for programming : Marc-Olivier Méhu
Technical & hardware support : Manuel Goepfert

Contact : metmap@orbifly.com




SOURCES & CREDITS :

   NOAA